Time;durP1;ratioP1;P1;durP2;ratioP2;P2;SDS_P1;SDS_P2;PMS_P1;PMS_P2;Temp;Humidity;BMP_temperature;BMP_pressure;BME280_temperature;BME280_humidity;BME280_pressure;Samples;Min_cycle;Max_cycle;Signal;HPM_P1;HPM_P2
2023/12/23 00:00:51;;;;;;;;;;;;;;;;;;5116097;28;19923;-42
2023/12/23 00:03:17;;;;;;;;;;;;;;;;;;5115816;28;19923;-42
2023/12/23 00:05:44;;;;;;;;;;;;;;;;;;5116141;28;19923;-43
2023/12/23 00:08:10;;;;;;;;;;;;;;;;;;5115886;28;19923;-41
2023/12/23 00:10:36;;;;;;;;;;;;;;;;;;5115753;28;19924;-42
2023/12/23 00:13:02;;;;;;;;;;;;;;;;;;5115863;28;20340;-42
2023/12/23 00:15:28;;;;;;;;;;;;;;;;;;5115379;28;19924;-42
2023/12/23 00:17:54;;;;;;;;;;;;;;;;;;5115838;28;19970;-43
2023/12/23 00:20:21;;;;;;;;;;;;;;;;;;5115452;28;19924;-43
2023/12/23 00:22:48;;;;;;;;;;;;;;;;;;5115190;28;19923;-41
2023/12/23 00:25:14;;;;;;;;;;;;;;;;;;5115256;28;19932;-43
2023/12/23 00:27:40;;;;;;;;;;;;;;;;;;5115555;28;19927;-42
2023/12/23 00:30:06;;;;;;;;;;;;;;;;;;5115498;28;19924;-42
2023/12/23 00:32:32;;;;;;;;;;;;;;;;;;5115583;28;19930;-43
2023/12/23 00:34:59;;;;;;;;;;;;;;;;;;5115584;28;19973;-43
2023/12/23 00:37:25;;;;;;;;;;;;;;;;;;5115203;28;20291;-41
2023/12/23 00:39:51;;;;;;;;;;;;;;;;;;5115119;28;19927;-43
2023/12/23 00:42:17;;;;;;;;;;;;;;;;;;5115314;28;20313;-44
2023/12/23 00:44:43;;;;;;;;;;;;;;;;;;5114938;28;19927;-43
2023/12/23 00:47:09;;;;;;;;;;;;;;;;;;5115177;28;19971;-41
2023/12/23 00:49:36;;;;;;;;;;;;;;;;;;5114720;28;20014;-44
2023/12/23 00:52:02;;;;;;;;;;;;;;;;;;5114565;28;19924;-44
2023/12/23 00:54:28;;;;;;;;;;;;;;;;;;5114067;28;19971;-42
2023/12/23 00:56:54;;;;;;;;;;;;;;;;;;5114509;28;19951;-41
2023/12/23 00:59:21;;;;;;;;;;;;;;;;;;5114277;28;19969;-41
2023/12/23 01:01:47;;;;;;;;;;;;;;;;;;5114809;28;20014;-42
2023/12/23 01:04:13;;;;;;;;;;;;;;;;;;5114406;28;19930;-43
2023/12/23 01:06:40;;;;;;;;;;;;;;;;;;5114831;28;19927;-41
2023/12/23 01:09:06;;;;;;;;;;;;;;;;;;5114705;28;20034;-43
2023/12/23 01:11:32;;;;;;;;;;;;;;;;;;5114911;28;19924;-42
2023/12/23 01:13:58;;;;;;;;;;;;;;;;;;5114782;28;19927;-42
2023/12/23 01:16:24;;;;;;;;;;;;;;;;;;5114315;28;20368;-43
2023/12/23 01:18:50;;;;;;;;;;;;;;;;;;5113898;28;20341;-45
2023/12/23 01:21:20;;;;;;;;;;;;;;;;;;5114222;28;19927;-43
2023/12/23 01:23:46;;;;;;;;;;;;;;;;;;5114166;28;19924;-43
2023/12/23 01:26:13;;;;;;;;;;;;;;;;;;5113772;28;19992;-41
2023/12/23 01:28:39;;;;;;;;;;;;;;;;;;5114021;28;20295;-43
2023/12/23 01:31:05;;;;;;;;;;;;;;;;;;5114364;28;19938;-41
2023/12/23 01:33:31;;;;;;;;;;;;;;;;;;5114028;28;19967;-41
2023/12/23 01:35:58;;;;;;;;;;;;;;;;;;5114463;28;20006;-43
2023/12/23 01:38:24;;;;;;;;;;;;;;;;;;5114136;28;19935;-43
2023/12/23 01:40:50;;;;;;;;;;;;;;;;;;5114199;28;19930;-42
2023/12/23 01:43:16;;;;;;;;;;;;;;;;;;5114341;28;19968;-44
2023/12/23 01:45:43;;;;;;;;;;;;;;;;;;5113674;28;19928;-42
2023/12/23 01:48:09;;;;;;;;;;;;;;;;;;5114114;28;19928;-43
2023/12/23 01:50:35;;;;;;;;;;;;;;;;;;5113686;28;19930;-44
2023/12/23 01:53:01;;;;;;;;;;;;;;;;;;5113687;28;19985;-42
2023/12/23 01:55:28;;;;;;;;;;;;;;;;;;5113388;28;19931;-43
2023/12/23 01:57:54;;;;;;;;;;;;;;;;;;5113707;28;20440;-42
2023/12/23 02:00:20;;;;;;;;;;;;;;;;;;5112920;28;20321;-43
2023/12/23 02:02:47;;;;;;;;;;;;;;;;;;5113795;28;19928;-41
2023/12/23 02:05:14;;;;;;;;;;;;;;;;;;5113705;28;19930;-43
2023/12/23 02:07:43;;;;;;;;;;;;;;;;;;5113836;28;19977;-44
2023/12/23 02:10:10;;;;;;;;;;;;;;;;;;5113221;28;19931;-43
2023/12/23 02:12:37;;;;;;;;;;;;;;;;;;5113765;28;20355;-46
2023/12/23 02:15:04;;;;;;;;;;;;;;;;;;5113284;28;19928;-43
2023/12/23 02:17:31;;;;;;;;;;;;;;;;;;5113424;28;19970;-43
2023/12/23 02:19:57;;;;;;;;;;;;;;;;;;5113340;28;19938;-41
2023/12/23 02:22:23;;;;;;;;;;;;;;;;;;5113471;28;19928;-42
2023/12/23 02:24:49;;;;;;;;;;;;;;;;;;5112856;28;19949;-43
2023/12/23 02:27:15;;;;;;;;;;;;;;;;;;5113423;28;19928;-42
2023/12/23 02:29:41;;;;;;;;;;;;;;;;;;5112880;28;19927;-45
2023/12/23 02:32:08;;;;;;;;;;;;;;;;;;5113438;28;20313;-45
2023/12/23 02:34:34;;;;;;;;;;;;;;;;;;5113547;28;19935;-43
2023/12/23 02:37:00;;;;;;;;;;;;;;;;;;5113035;28;20287;-41
2023/12/23 02:39:26;;;;;;;;;;;;;;;;;;5112713;28;20383;-45
2023/12/23 02:41:52;;;;;;;;;;;;;;;;;;5113371;28;19928;-42
2023/12/23 02:44:18;;;;;;;;;;;;;;;;;;5113204;28;19931;-42
2023/12/23 02:46:45;;;;;;;;;;;;;;;;;;5113207;28;19977;-42
2023/12/23 02:49:11;;;;;;;;;;;;;;;;;;5113200;28;19923;-41
2023/12/23 02:51:37;;;;;;;;;;;;;;;;;;5112838;28;20351;-43
2023/12/23 02:54:03;;;;;;;;;;;;;;;;;;5112801;28;19931;-42
2023/12/23 02:56:30;;;;;;;;;;;;;;;;;;5113060;28;19959;-42
2023/12/23 02:58:57;;;;;;;;;;;;;;;;;;5111604;28;20416;-42
2023/12/23 03:01:23;;;;;;;;;;;;;;;;;;5112748;28;19923;-43
2023/12/23 03:03:49;;;;;;;;;;;;;;;;;;5113157;28;19928;-42
2023/12/23 03:06:15;;;;;;;;;;;;;;;;;;5112744;28;19973;-41
2023/12/23 03:08:41;;;;;;;;;;;;;;;;;;5113094;28;19923;-41
2023/12/23 03:11:08;;;;;;;;;;;;;;;;;;5114459;28;19923;-43
2023/12/23 03:13:34;;;;;;;;;;;;;;;;;;5117196;28;20299;-42
2023/12/23 03:16:00;;;;;;;;;;;;;;;;;;5116783;28;20351;-42
2023/12/23 03:18:26;;;;;;;;;;;;;;;;;;5116990;28;19924;-41
2023/12/23 03:20:52;;;;;;;;;;;;;;;;;;5115905;28;20010;-41
2023/12/23 03:23:18;;;;;;;;;;;;;;;;;;5116313;27;19924;-41
2023/12/23 03:25:45;;;;;;;;;;;;;;;;;;5115858;28;20347;-41
2023/12/23 03:28:11;;;;;;;;;;;;;;;;;;5116887;28;19973;-43
2023/12/23 03:30:37;;;;;;;;;;;;;;;;;;5116272;28;20000;-42
2023/12/23 03:33:03;;;;;;;;;;;;;;;;;;5116946;28;19928;-40
2023/12/23 03:35:30;;;;;;;;;;;;;;;;;;5116404;28;20027;-43
2023/12/23 03:37:56;;;;;;;;;;;;;;;;;;5116402;28;20256;-43
2023/12/23 03:40:22;;;;;;;;;;;;;;;;;;5115591;28;19924;-42
2023/12/23 03:42:48;;;;;;;;;;;;;;;;;;5115741;28;19924;-41
2023/12/23 03:45:16;;;;;;;;;;;;;;;;;;5115403;28;19923;-43
2023/12/23 03:47:43;;;;;;;;;;;;;;;;;;5115761;28;20403;-40
2023/12/23 03:50:10;;;;;;;;;;;;;;;;;;5115416;28;19924;-41
2023/12/23 03:52:36;;;;;;;;;;;;;;;;;;5115568;28;19930;-43
2023/12/23 03:55:02;;;;;;;;;;;;;;;;;;5115397;28;19936;-42
2023/12/23 03:57:28;;;;;;;;;;;;;;;;;;5115704;28;19931;-41
2023/12/23 03:59:55;;;;;;;;;;;;;;;;;;5115413;28;19976;-41
2023/12/23 04:02:21;;;;;;;;;;;;;;;;;;5115575;27;19988;-41
2023/12/23 04:04:47;;;;;;;;;;;;;;;;;;5115520;28;19927;-42
2023/12/23 04:07:13;;;;;;;;;;;;;;;;;;5116205;28;20010;-41
2023/12/23 04:09:39;;;;;;;;;;;;;;;;;;5115797;28;19923;-43
2023/12/23 04:12:05;;;;;;;;;;;;;;;;;;5116170;27;19932;-44
2023/12/23 04:14:32;;;;;;;;;;;;;;;;;;5115680;28;19924;-42
2023/12/23 04:16:58;;;;;;;;;;;;;;;;;;5115532;27;19924;-44
2023/12/23 04:19:25;;;;;;;;;;;;;;;;;;5115676;28;19928;-41
2023/12/23 04:21:51;;;;;;;;;;;;;;;;;;5114609;28;19928;-41
2023/12/23 04:24:19;;;;;;;;;;;;;;;;;;5114485;28;20160;-41
2023/12/23 04:26:46;;;;;;;;;;;;;;;;;;5114573;28;20413;-42
2023/12/23 04:29:12;;;;;;;;;;;;;;;;;;5114756;28;19932;-42
2023/12/23 04:31:38;;;;;;;;;;;;;;;;;;5113941;28;19931;-40
2023/12/23 04:34:04;;;;;;;;;;;;;;;;;;5115343;28;19973;-42
2023/12/23 04:36:31;;;;;;;;;;;;;;;;;;5114829;28;19975;-44
2023/12/23 04:38:57;;;;;;;;;;;;;;;;;;5114884;28;19954;-41
2023/12/23 04:41:23;;;;;;;;;;;;;;;;;;5114928;28;19924;-41
2023/12/23 04:43:49;;;;;;;;;;;;;;;;;;5114726;28;19928;-43
2023/12/23 04:46:16;;;;;;;;;;;;;;;;;;5114658;28;19939;-41
2023/12/23 04:48:42;;;;;;;;;;;;;;;;;;5114743;28;19924;-44
2023/12/23 04:51:08;;;;;;;;;;;;;;;;;;5114897;28;19924;-41
2023/12/23 04:53:35;;;;;;;;;;;;;;;;;;5115115;28;19928;-43
2023/12/23 04:56:01;;;;;;;;;;;;;;;;;;5115089;28;19927;-41
2023/12/23 04:58:27;;;;;;;;;;;;;;;;;;5114720;28;19954;-44
2023/12/23 05:00:53;;;;;;;;;;;;;;;;;;5114378;28;20374;-42
2023/12/23 05:03:19;;;;;;;;;;;;;;;;;;5115071;28;19924;-42
2023/12/23 05:05:46;;;;;;;;;;;;;;;;;;5115016;28;19973;-42
2023/12/23 05:08:16;;;;;;;;;;;;;;;;;;5115014;28;19942;-42
2023/12/23 05:10:43;;;;;;;;;;;;;;;;;;5114641;28;20272;-41
2023/12/23 05:13:09;;;;;;;;;;;;;;;;;;5114628;28;19924;-42
2023/12/23 05:15:35;;;;;;;;;;;;;;;;;;5114181;28;19924;-42
2023/12/23 05:18:01;;;;;;;;;;;;;;;;;;5114402;28;19931;-41
2023/12/23 05:20:28;;;;;;;;;;;;;;;;;;5114119;28;20454;-41
2023/12/23 05:22:54;;;;;;;;;;;;;;;;;;5114499;28;19931;-41
2023/12/23 05:25:20;;;;;;;;;;;;;;;;;;5114706;28;19934;-42
2023/12/23 05:27:46;;;;;;;;;;;;;;;;;;5114111;28;20256;-42
2023/12/23 05:30:12;;;;;;;;;;;;;;;;;;5114054;28;19924;-41
2023/12/23 05:32:39;;;;;;;;;;;;;;;;;;5114327;28;19924;-43
2023/12/23 05:35:05;;;;;;;;;;;;;;;;;;5114118;28;20382;-41
2023/12/23 05:37:32;;;;;;;;;;;;;;;;;;5114326;28;20420;-41
2023/12/23 05:39:58;;;;;;;;;;;;;;;;;;5113739;28;19928;-41
2023/12/23 05:42:25;;;;;;;;;;;;;;;;;;5113890;28;19964;-41
2023/12/23 05:44:51;;;;;;;;;;;;;;;;;;5113681;28;19923;-42
2023/12/23 05:47:18;;;;;;;;;;;;;;;;;;5113890;28;19928;-43
2023/12/23 05:49:44;;;;;;;;;;;;;;;;;;5113854;28;19924;-42
2023/12/23 05:52:10;;;;;;;;;;;;;;;;;;5114151;28;19984;-41
2023/12/23 05:54:38;;;;;;;;;;;;;;;;;;5113138;28;21206;-41
2023/12/23 05:57:04;;;;;;;;;;;;;;;;;;5114058;28;19928;-41
2023/12/23 05:59:32;;;;;;;;;;;;;;;;;;5114060;28;19992;-43
2023/12/23 06:01:58;;;;;;;;;;;;;;;;;;5113326;28;19927;-41
2023/12/23 06:04:24;;;;;;;;;;;;;;;;;;5113865;28;19924;-43
2023/12/23 06:06:50;;;;;;;;;;;;;;;;;;5113808;28;19973;-43
2023/12/23 06:09:17;;;;;;;;;;;;;;;;;;5113656;28;19966;-43
2023/12/23 06:11:43;;;;;;;;;;;;;;;;;;5113786;28;19977;-43
2023/12/23 06:14:09;;;;;;;;;;;;;;;;;;5113613;28;19973;-41
2023/12/23 06:16:36;;;;;;;;;;;;;;;;;;5113374;28;20001;-43
2023/12/23 06:19:02;;;;;;;;;;;;;;;;;;5113297;28;19924;-42
2023/12/23 06:21:28;;;;;;;;;;;;;;;;;;5113465;28;19935;-41
2023/12/23 06:23:54;;;;;;;;;;;;;;;;;;5113330;28;19991;-42
2023/12/23 06:26:20;;;;;;;;;;;;;;;;;;5113447;28;19923;-42
2023/12/23 06:28:47;;;;;;;;;;;;;;;;;;5113472;28;19923;-43
2023/12/23 06:31:13;;;;;;;;;;;;;;;;;;5113196;28;19924;-43
2023/12/23 06:33:39;;;;;;;;;;;;;;;;;;5113437;28;20363;-41
2023/12/23 06:36:08;;;;;;;;;;;;;;;;;;5113215;28;20347;-42
2023/12/23 06:38:34;;;;;;;;;;;;;;;;;;5113418;28;19928;-42
2023/12/23 06:41:00;;;;;;;;;;;;;;;;;;5113219;28;19923;-42
2023/12/23 06:43:26;;;;;;;;;;;;;;;;;;5113143;28;20014;-41
2023/12/23 06:46:10;;;;;;;;;;;;;;;;;;5116401;28;19938;-43
2023/12/23 06:48:36;;;;;;;;;;;;;;;;;;5119231;28;19955;-42
2023/12/23 06:51:03;;;;;;;;;;;;;;;;;;5120123;28;20026;-41
2023/12/23 06:53:29;;;;;;;;;;;;;;;;;;5120149;28;20356;-42
2023/12/23 06:55:55;;;;;;;;;;;;;;;;;;5119728;27;20012;-42
2023/12/23 06:58:22;;;;;;;;;;;;;;;;;;5120350;27;20389;-44
2023/12/23 07:00:48;;;;;;;;;;;;;;;;;;5120050;27;20009;-41
2023/12/23 07:03:14;;;;;;;;;;;;;;;;;;5119772;27;20355;-42
2023/12/23 07:05:40;;;;;;;;;;;;;;;;;;5119343;27;20329;-44
2023/12/23 07:08:06;;;;;;;;;;;;;;;;;;5119261;27;19924;-42
2023/12/23 07:10:33;;;;;;;;;;;;;;;;;;5119213;27;19931;-44
2023/12/23 07:12:59;;;;;;;;;;;;;;;;;;5119558;27;19931;-44
2023/12/23 07:15:25;;;;;;;;;;;;;;;;;;5119008;27;19944;-42
2023/12/23 07:17:51;;;;;;;;;;;;;;;;;;5119320;27;19924;-41
2023/12/23 07:20:17;;;;;;;;;;;;;;;;;;5119168;27;19931;-43
2023/12/23 07:22:44;;;;;;;;;;;;;;;;;;5119289;27;19923;-41
2023/12/23 07:25:10;;;;;;;;;;;;;;;;;;5119500;27;19924;-44
2023/12/23 07:27:36;;;;;;;;;;;;;;;;;;5119653;27;19949;-40
2023/12/23 07:30:03;;;;;;;;;;;;;;;;;;5119542;27;19928;-42
2023/12/23 07:32:29;;;;;;;;;;;;;;;;;;5119202;27;19934;-45
2023/12/23 07:34:55;;;;;;;;;;;;;;;;;;5119610;27;19928;-41
2023/12/23 07:37:21;;;;;;;;;;;;;;;;;;5119116;27;19924;-43
2023/12/23 07:39:48;;;;;;;;;;;;;;;;;;5119262;28;19924;-42
2023/12/23 07:42:14;;;;;;;;;;;;;;;;;;5119598;27;20367;-43
2023/12/23 07:44:40;;;;;;;;;;;;;;;;;;5119317;28;19928;-42
2023/12/23 07:47:09;;;;;;;;;;;;;;;;;;5119600;27;19923;-42
2023/12/23 07:49:35;;;;;;;;;;;;;;;;;;5119079;28;19923;-42
2023/12/23 07:55:14;;;;;;;;;;;;;;;;;;5113634;28;19965;-45
2023/12/23 07:57:42;;;;;;;;;;;;;;;;;;5115919;27;19949;-43
2023/12/23 08:00:08;;;;;;;;;;;;;;;;;;5115897;28;19972;-42
2023/12/23 08:02:34;;;;;;;;;;;;;;;;;;5115832;28;19927;-41
2023/12/23 08:05:02;;;;;;;;;;;;;;;;;;5115512;28;20019;-43
2023/12/23 08:07:29;;;;;;;;;;;;;;;;;;5115791;28;19976;-43
2023/12/23 08:09:55;;;;;;;;;;;;;;;;;;5115786;27;20376;-43
2023/12/23 08:12:21;;;;;;;;;;;;;;;;;;5116245;28;19967;-44
2023/12/23 08:14:47;;;;;;;;;;;;;;;;;;5115874;28;19928;-41
2023/12/23 08:17:14;;;;;;;;;;;;;;;;;;5116218;28;19968;-42
2023/12/23 08:19:40;;;;;;;;;;;;;;;;;;5116066;28;20291;-43
2023/12/23 08:22:06;;;;;;;;;;;;;;;;;;5115407;28;19931;-43
2023/12/23 08:24:33;;;;;;;;;;;;;;;;;;5115608;28;19963;-42
2023/12/23 08:27:00;;;;;;;;;;;;;;;;;;5115432;28;19977;-43
2023/12/23 08:29:26;;;;;;;;;;;;;;;;;;5115712;27;19923;-42
2023/12/23 08:31:52;;;;;;;;;;;;;;;;;;5115402;28;19935;-41
2023/12/23 08:34:18;;;;;;;;;;;;;;;;;;5115031;28;20260;-41
2023/12/23 08:36:49;;;;;;;;;;;;;;;;;;5115535;28;20287;-44
2023/12/23 08:39:15;;;;;;;;;;;;;;;;;;5114783;28;19927;-41
2023/12/23 08:41:41;;;;;;;;;;;;;;;;;;5115560;27;19946;-41
2023/12/23 08:44:08;;;;;;;;;;;;;;;;;;5115345;28;19923;-42
2023/12/23 08:46:34;;;;;;;;;;;;;;;;;;5114715;28;19924;-42
2023/12/23 08:49:00;;;;;;;;;;;;;;;;;;5115236;28;19930;-42
2023/12/23 08:51:31;;;;;;;;;;;;;;;;;;5115258;28;19928;-41
2023/12/23 08:53:57;;;;;;;;;;;;;;;;;;5114995;28;19931;-41
2023/12/23 08:56:23;;;;;;;;;;;;;;;;;;5115171;28;19928;-42
2023/12/23 08:58:50;;;;;;;;;;;;;;;;;;5115197;28;19931;-43
2023/12/23 09:01:17;;;;;;;;;;;;;;;;;;5114985;28;19984;-41
2023/12/23 09:03:43;;;;;;;;;;;;;;;;;;5114418;28;20367;-41
2023/12/23 09:06:11;;;;;;;;;;;;;;;;;;5114958;28;19927;-40
2023/12/23 09:08:38;;;;;;;;;;;;;;;;;;5114351;28;19931;-42
2023/12/23 09:11:04;;;;;;;;;;;;;;;;;;5114868;28;20436;-40
2023/12/23 09:13:30;;;;;;;;;;;;;;;;;;5115081;28;19923;-41
2023/12/23 09:15:56;;;;;;;;;;;;;;;;;;5114407;28;19971;-40
2023/12/23 09:18:23;;;;;;;;;;;;;;;;;;5114977;28;20236;-43
2023/12/23 09:20:49;;;;;;;;;;;;;;;;;;5114600;28;19971;-40
2023/12/23 09:23:15;;;;;;;;;;;;;;;;;;5114613;28;19967;-40
2023/12/23 09:25:41;;;;;;;;;;;;;;;;;;5114382;28;19928;-41
2023/12/23 09:28:07;;;;;;;;;;;;;;;;;;5114457;28;19923;-42
2023/12/23 09:30:34;;;;;;;;;;;;;;;;;;5114686;28;19968;-41
2023/12/23 09:33:00;;;;;;;;;;;;;;;;;;5114552;28;20376;-41
2023/12/23 09:35:26;;;;;;;;;;;;;;;;;;5114247;28;20031;-41
2023/12/23 09:37:52;;;;;;;;;;;;;;;;;;5114305;28;20386;-41
2023/12/23 09:40:19;;;;;;;;;;;;;;;;;;5113845;28;19963;-42
2023/12/23 09:42:45;;;;;;;;;;;;;;;;;;5114116;28;19928;-40
2023/12/23 09:45:11;;;;;;;;;;;;;;;;;;5114075;28;19924;-41
2023/12/23 09:47:37;;;;;;;;;;;;;;;;;;5113655;28;19923;-41
2023/12/23 09:50:03;;;;;;;;;;;;;;;;;;5113611;28;19924;-42
2023/12/23 09:52:30;;;;;;;;;;;;;;;;;;5114187;28;19998;-40
2023/12/23 09:54:56;;;;;;;;;;;;;;;;;;5113870;28;19924;-41
2023/12/23 09:57:23;;;;;;;;;;;;;;;;;;5113703;28;20275;-42
2023/12/23 09:59:49;;;;;;;;;;;;;;;;;;5113492;28;20256;-42
2023/12/23 10:02:15;;;;;;;;;;;;;;;;;;5113311;28;19931;-40
2023/12/23 10:04:42;;;;;;;;;;;;;;;;;;5113283;28;20306;-42
2023/12/23 10:07:08;;;;;;;;;;;;;;;;;;5113583;28;19924;-40
2023/12/23 10:09:34;;;;;;;;;;;;;;;;;;5112616;27;19924;-41
2023/12/23 10:12:00;;;;;;;;;;;;;;;;;;5112604;28;19982;-40
2023/12/23 10:14:26;;;;;;;;;;;;;;;;;;5113474;28;19924;-41
2023/12/23 10:16:53;;;;;;;;;;;;;;;;;;5113737;28;19924;-42
2023/12/23 10:19:19;;;;;;;;;;;;;;;;;;5113285;28;19923;-42
2023/12/23 10:21:45;;;;;;;;;;;;;;;;;;5112928;28;19924;-40
2023/12/23 10:24:12;;;;;;;;;;;;;;;;;;5113355;28;19928;-42
2023/12/23 10:26:38;;;;;;;;;;;;;;;;;;5113593;28;19923;-40
2023/12/23 10:29:04;;;;;;;;;;;;;;;;;;5113502;28;19924;-43
2023/12/23 10:31:30;;;;;;;;;;;;;;;;;;5113104;28;19934;-42
2023/12/23 10:33:57;;;;;;;;;;;;;;;;;;5113277;28;19927;-41
2023/12/23 10:36:23;;;;;;;;;;;;;;;;;;5113484;28;19931;-41
2023/12/23 10:38:49;;;;;;;;;;;;;;;;;;5113044;28;19923;-41
2023/12/23 10:41:15;;;;;;;;;;;;;;;;;;5113367;28;19952;-42
2023/12/23 10:43:41;;;;;;;;;;;;;;;;;;5113181;28;19924;-44
2023/12/23 10:46:07;;;;;;;;;;;;;;;;;;5113050;28;19923;-42
2023/12/23 10:48:34;;;;;;;;;;;;;;;;;;5113264;28;19943;-40
2023/12/23 10:51:00;;;;;;;;;;;;;;;;;;5113290;28;20268;-42
2023/12/23 10:53:26;;;;;;;;;;;;;;;;;;5113346;28;19924;-41
2023/12/23 10:55:53;;;;;;;;;;;;;;;;;;5113279;28;19997;-45
2023/12/23 10:58:19;;;;;;;;;;;;;;;;;;5113365;28;19923;-44
2023/12/23 11:00:46;;;;;;;;;;;;;;;;;;5113182;28;19993;-41
2023/12/23 11:03:13;;;;;;;;;;;;;;;;;;5113303;28;19931;-42
2023/12/23 11:05:39;;;;;;;;;;;;;;;;;;5112956;28;19947;-41
2023/12/23 11:08:05;;;;;;;;;;;;;;;;;;5113328;28;19927;-44
2023/12/23 11:10:38;;;;;;;;;;;;;;;;;;5112946;28;19942;-41
2023/12/23 11:13:06;;;;;;;;;;;;;;;;;;5113174;28;20375;-41
2023/12/23 11:15:32;;;;;;;;;;;;;;;;;;5112713;28;19968;-43
2023/12/23 11:18:01;;;;;;;;;;;;;;;;;;5113023;28;19924;-43
2023/12/23 11:20:28;;;;;;;;;;;;;;;;;;5112952;28;19924;-41
2023/12/23 11:22:54;;;;;;;;;;;;;;;;;;5112940;28;20481;-42
2023/12/23 11:25:21;;;;;;;;;;;;;;;;;;5112387;28;19927;-42
2023/12/23 11:27:47;;;;;;;;;;;;;;;;;;5112468;28;19973;-44
2023/12/23 11:30:13;;;;;;;;;;;;;;;;;;5112504;28;20332;-41
2023/12/23 11:32:39;;;;;;;;;;;;;;;;;;5114428;28;19923;-42
2023/12/23 11:35:05;;;;;;;;;;;;;;;;;;5116443;28;19923;-42
2023/12/23 11:37:32;;;;;;;;;;;;;;;;;;5116530;28;19923;-41
2023/12/23 11:39:58;;;;;;;;;;;;;;;;;;5115641;28;19924;-41
2023/12/23 11:42:24;;;;;;;;;;;;;;;;;;5116415;27;19923;-42
2023/12/23 11:44:50;;;;;;;;;;;;;;;;;;5115147;27;20352;-41
2023/12/23 11:47:17;;;;;;;;;;;;;;;;;;5116220;28;20317;-40
2023/12/23 11:49:43;;;;;;;;;;;;;;;;;;5116208;28;19938;-43
2023/12/23 11:52:10;;;;;;;;;;;;;;;;;;5116563;28;19928;-41
2023/12/23 11:54:36;;;;;;;;;;;;;;;;;;5116529;28;19924;-42
2023/12/23 11:57:02;;;;;;;;;;;;;;;;;;5116458;27;19983;-42
2023/12/23 11:59:29;;;;;;;;;;;;;;;;;;5116575;28;19924;-42
2023/12/23 12:01:55;;;;;;;;;;;;;;;;;;5116471;28;19979;-44
2023/12/23 12:04:21;;;;;;;;;;;;;;;;;;5115819;28;19932;-42
2023/12/23 12:06:47;;;;;;;;;;;;;;;;;;5115449;28;20290;-41
2023/12/23 12:09:13;;;;;;;;;;;;;;;;;;5115979;28;19924;-44
2023/12/23 12:11:40;;;;;;;;;;;;;;;;;;5116223;28;20040;-43
2023/12/23 12:14:07;;;;;;;;;;;;;;;;;;5116078;27;19924;-42
2023/12/23 12:16:34;;;;;;;;;;;;;;;;;;5115550;28;19923;-41
2023/12/23 12:19:00;;;;;;;;;;;;;;;;;;5116112;28;19949;-42
2023/12/23 12:21:26;;;;;;;;;;;;;;;;;;5115875;28;19986;-41
2023/12/23 12:23:57;;;;;;;;;;;;;;;;;;5115949;28;19969;-42
2023/12/23 12:26:24;;;;;;;;;;;;;;;;;;5115721;28;19931;-44
2023/12/23 12:28:50;;;;;;;;;;;;;;;;;;5115666;28;19924;-42
2023/12/23 12:31:16;;;;;;;;;;;;;;;;;;5115789;28;19924;-42
2023/12/23 12:33:42;;;;;;;;;;;;;;;;;;5115569;28;20347;-41
2023/12/23 12:36:11;;;;;;;;;;;;;;;;;;5115272;28;19924;-41
2023/12/23 12:38:37;;;;;;;;;;;;;;;;;;5115673;28;19973;-42
2023/12/23 12:41:06;;;;;;;;;;;;;;;;;;5114474;28;20018;-42
2023/12/23 12:43:34;;;;;;;;;;;;;;;;;;5114885;28;19928;-41
2023/12/23 12:46:00;;;;;;;;;;;;;;;;;;5114403;28;19928;-43
2023/12/23 12:48:26;;;;;;;;;;;;;;;;;;5115663;28;19927;-44
2023/12/23 12:50:53;;;;;;;;;;;;;;;;;;5115279;28;20411;-41
2023/12/23 12:53:19;;;;;;;;;;;;;;;;;;5115433;28;19970;-42
2023/12/23 12:55:45;;;;;;;;;;;;;;;;;;5115237;28;20356;-40
2023/12/23 12:58:12;;;;;;;;;;;;;;;;;;5115297;28;19927;-42
2023/12/23 13:00:38;;;;;;;;;;;;;;;;;;5115370;28;19923;-41
2023/12/23 13:03:04;;;;;;;;;;;;;;;;;;5115293;28;20018;-40
2023/12/23 13:05:30;;;;;;;;;;;;;;;;;;5114948;28;20382;-41
2023/12/23 13:07:57;;;;;;;;;;;;;;;;;;5115117;28;20242;-40
2023/12/23 13:10:23;;;;;;;;;;;;;;;;;;5114627;28;19949;-41
2023/12/23 13:12:49;;;;;;;;;;;;;;;;;;5114664;28;20325;-40
2023/12/23 13:15:16;;;;;;;;;;;;;;;;;;5114550;27;20367;-41
2023/12/23 13:17:42;;;;;;;;;;;;;;;;;;5114823;28;19934;-40
2023/12/23 13:20:11;;;;;;;;;;;;;;;;;;5114617;28;20367;-40
2023/12/23 13:22:37;;;;;;;;;;;;;;;;;;5114771;28;19924;-43
2023/12/23 13:25:04;;;;;;;;;;;;;;;;;;5114568;28;19924;-41
2023/12/23 13:27:30;;;;;;;;;;;;;;;;;;5114706;28;20357;-40
2023/12/23 13:29:56;;;;;;;;;;;;;;;;;;5113980;28;20333;-42
2023/12/23 13:32:22;;;;;;;;;;;;;;;;;;5114695;28;20329;-43
2023/12/23 13:34:48;;;;;;;;;;;;;;;;;;5114575;28;19923;-41
2023/12/23 13:37:15;;;;;;;;;;;;;;;;;;5114125;28;19923;-43
2023/12/23 13:39:41;;;;;;;;;;;;;;;;;;5113821;28;19931;-43
2023/12/23 13:42:08;;;;;;;;;;;;;;;;;;5114138;28;19928;-41
2023/12/23 13:44:35;;;;;;;;;;;;;;;;;;5113687;28;19924;-41
2023/12/23 13:47:03;;;;;;;;;;;;;;;;;;5113857;28;19932;-40
2023/12/23 13:49:30;;;;;;;;;;;;;;;;;;5113956;28;20382;-42
2023/12/23 13:51:56;;;;;;;;;;;;;;;;;;5113894;28;19927;-43
2023/12/23 13:54:22;;;;;;;;;;;;;;;;;;5113858;28;19981;-40
2023/12/23 13:56:48;;;;;;;;;;;;;;;;;;5113434;28;19923;-41
2023/12/23 13:59:14;;;;;;;;;;;;;;;;;;5114221;28;20317;-41
2023/12/23 14:01:40;;;;;;;;;;;;;;;;;;5114155;28;19924;-41
2023/12/23 14:04:07;;;;;;;;;;;;;;;;;;5114303;28;19967;-41
2023/12/23 14:06:33;;;;;;;;;;;;;;;;;;5113733;28;19928;-40
2023/12/23 14:08:59;;;;;;;;;;;;;;;;;;5113648;28;19923;-41
2023/12/23 14:11:25;;;;;;;;;;;;;;;;;;5113744;28;19923;-41
2023/12/23 14:13:51;;;;;;;;;;;;;;;;;;5113556;28;19924;-43
2023/12/23 14:16:17;;;;;;;;;;;;;;;;;;5113536;28;19927;-42
2023/12/23 14:18:44;;;;;;;;;;;;;;;;;;5113694;28;20358;-42
2023/12/23 14:21:11;;;;;;;;;;;;;;;;;;5113592;28;19923;-42
2023/12/23 14:23:38;;;;;;;;;;;;;;;;;;5113790;28;20344;-42
2023/12/23 14:26:04;;;;;;;;;;;;;;;;;;5113524;28;19931;-41
2023/12/23 14:28:34;;;;;;;;;;;;;;;;;;5113855;28;20382;-41
2023/12/23 14:31:00;;;;;;;;;;;;;;;;;;5113595;28;20283;-40
2023/12/23 14:33:26;;;;;;;;;;;;;;;;;;5113425;28;19924;-43
2023/12/23 14:35:52;;;;;;;;;;;;;;;;;;5113610;28;19963;-45
2023/12/23 14:38:18;;;;;;;;;;;;;;;;;;5112894;28;19973;-41
2023/12/23 14:40:45;;;;;;;;;;;;;;;;;;5113085;28;20305;-41
2023/12/23 14:43:11;;;;;;;;;;;;;;;;;;5113445;28;19930;-40
2023/12/23 14:45:37;;;;;;;;;;;;;;;;;;5111978;28;19924;-41
2023/12/23 14:48:03;;;;;;;;;;;;;;;;;;5110941;28;20352;-42
2023/12/23 14:50:30;;;;;;;;;;;;;;;;;;5112635;28;19930;-41
2023/12/23 14:52:56;;;;;;;;;;;;;;;;;;5112544;28;19962;-40
2023/12/23 14:55:22;;;;;;;;;;;;;;;;;;5112588;28;19951;-42
2023/12/23 14:57:48;;;;;;;;;;;;;;;;;;5113174;28;20312;-43
2023/12/23 15:00:15;;;;;;;;;;;;;;;;;;5111783;28;20351;-42
2023/12/23 15:02:41;;;;;;;;;;;;;;;;;;5112479;28;20323;-40
2023/12/23 15:05:07;;;;;;;;;;;;;;;;;;5112253;28;19924;-40
2023/12/23 15:07:34;;;;;;;;;;;;;;;;;;5113871;28;19963;-42
2023/12/23 15:10:00;;;;;;;;;;;;;;;;;;5116327;28;19923;-40
2023/12/23 15:12:26;;;;;;;;;;;;;;;;;;5115864;28;19923;-41
2023/12/23 15:14:52;;;;;;;;;;;;;;;;;;5115754;28;19927;-43
2023/12/23 15:17:18;;;;;;;;;;;;;;;;;;5116571;28;19924;-41
2023/12/23 15:19:45;;;;;;;;;;;;;;;;;;5116149;28;19931;-43
2023/12/23 15:22:11;;;;;;;;;;;;;;;;;;5115917;28;19950;-42
2023/12/23 15:24:37;;;;;;;;;;;;;;;;;;5115654;28;19940;-43
2023/12/23 15:27:03;;;;;;;;;;;;;;;;;;5115774;28;20371;-43
2023/12/23 15:29:29;;;;;;;;;;;;;;;;;;5116126;28;20317;-40
2023/12/23 15:31:55;;;;;;;;;;;;;;;;;;5115278;28;20026;-41
2023/12/23 15:34:22;;;;;;;;;;;;;;;;;;5116084;28;19931;-42
2023/12/23 15:36:48;;;;;;;;;;;;;;;;;;5114738;28;19924;-41
2023/12/23 15:39:14;;;;;;;;;;;;;;;;;;5115604;28;20040;-42
2023/12/23 15:41:40;;;;;;;;;;;;;;;;;;5114789;28;19924;-43
2023/12/23 15:44:06;;;;;;;;;;;;;;;;;;5116542;27;19924;-42
2023/12/23 15:46:33;;;;;;;;;;;;;;;;;;5116327;28;20282;-42
2023/12/23 15:48:59;;;;;;;;;;;;;;;;;;5116702;28;20355;-42
2023/12/23 15:51:25;;;;;;;;;;;;;;;;;;5116480;28;19971;-40
2023/12/23 15:53:51;;;;;;;;;;;;;;;;;;5115080;28;19992;-43
2023/12/23 15:56:17;;;;;;;;;;;;;;;;;;5116512;28;20329;-42
2023/12/23 15:58:44;;;;;;;;;;;;;;;;;;5116553;28;19928;-41
2023/12/23 16:01:10;;;;;;;;;;;;;;;;;;5116520;28;19930;-41
2023/12/23 16:03:36;;;;;;;;;;;;;;;;;;5116149;28;19949;-41
2023/12/23 16:06:02;;;;;;;;;;;;;;;;;;5116080;28;19928;-40
2023/12/23 16:08:29;;;;;;;;;;;;;;;;;;5115594;28;20018;-42
2023/12/23 16:10:55;;;;;;;;;;;;;;;;;;5032519;28;19929;-42
2023/12/23 16:13:23;;;;;;;;;;;;;;;;;;5032288;28;19925;-43
2023/12/23 16:15:49;;;;;;;;;;;;;;;;;;5032509;28;20494;-41
2023/12/23 16:18:15;;;;;;;;;;;;;;;;;;5031820;28;20416;-40
2023/12/23 16:20:41;;;;;;;;;;;;;;;;;;5032797;28;20120;-40
2023/12/23 16:23:07;;;;;;;;;;;;;;;;;;5032842;28;19929;-41
2023/12/23 16:25:33;;;;;;;;;;;;;;;;;;5032646;28;19936;-40
2023/12/23 16:28:00;;;;;;;;;;;;;;;;;;5036455;28;20344;-41
2023/12/23 16:30:26;;;;;;;;;;;;;;;;;;5116022;28;19928;-40
2023/12/23 16:32:52;;;;;;;;;;;;;;;;;;5115647;28;19931;-41
2023/12/23 16:35:19;;;;;;;;;;;;;;;;;;5115723;28;19949;-43
2023/12/23 16:37:45;;;;;;;;;;;;;;;;;;5115561;28;19992;-41
2023/12/23 16:40:11;;;;;;;;;;;;;;;;;;5115218;27;20291;-43
2023/12/23 16:42:37;;;;;;;;;;;;;;;;;;5115244;28;19928;-42